Time;durP1;ratioP1;P1;durP2;ratioP2;P2;SDS_P1;SDS_P2;PMS_P1;PMS_P2;Temp;Humidity;BMP_temperature;BMP_pressure;BME280_temperature;BME280_humidity;BME280_pressure;Samples;Min_cycle;Max_cycle;Signal;HPM_P1;HPM_P2
2023/11/27 00:03:31;;;;;;;;;;;;;;;19.42;33.31;95283.31;10497043;28;3689;-51
2023/11/27 00:08:32;;;;;;;;;;;;;;;19.40;33.12;95282.81;10495842;28;2852;-48
2023/11/27 00:13:32;;;;;;;;;;;;;;;19.36;33.41;95277.31;10495375;28;2860;-47
2023/11/27 00:18:32;;;;;;;;;;;;;;;19.35;33.25;95270.50;10494464;28;2833;-50
2023/11/27 00:23:32;;;;;;;;;;;;;;;19.32;33.75;95271.03;10499733;28;3080;-50
2023/11/27 00:28:33;;;;;;;;;;;;;;;19.30;33.21;95267.91;10499656;28;3006;-48
2023/11/27 00:33:34;;;;;;;;;;;;;;;19.28;33.38;95263.97;10498525;28;2900;-49
2023/11/27 00:38:34;;;;;;;;;;;;;;;19.26;33.42;95258.22;10496945;28;2907;-49
2023/11/27 00:43:34;;;;;;;;;;;;;;;19.24;33.27;95257.69;10497220;28;4723;-48
2023/11/27 00:48:34;;;;;;;;;;;;;;;19.21;33.14;95256.41;10492153;28;2964;-52
2023/11/27 00:53:35;;;;;;;;;;;;;;;19.19;33.43;95255.91;10499698;28;2840;-48
2023/11/27 00:58:35;;;;;;;;;;;;;;;19.17;33.16;95242.25;10496135;28;2820;-48
2023/11/27 01:03:36;;;;;;;;;;;;;;;19.13;33.52;95243.88;10496802;28;3233;-51
2023/11/27 01:08:39;;;;;;;;;;;;;;;19.13;33.46;95245.69;10488363;28;2880;-50
2023/11/27 01:13:39;;;;;;;;;;;;;;;19.11;33.28;95240.72;10492720;28;2841;-48
2023/11/27 01:18:39;;;;;;;;;;;;;;;19.08;33.35;95233.38;10488477;28;2861;-49
2023/11/27 01:23:40;;;;;;;;;;;;;;;19.06;33.53;95229.50;10493917;28;2869;-51
2023/11/27 01:28:41;;;;;;;;;;;;;;;19.05;33.45;95226.06;10496520;28;2873;-50
2023/11/27 01:33:41;;;;;;;;;;;;;;;19.01;33.45;95214.56;10494047;28;2830;-48
2023/11/27 01:38:41;;;;;;;;;;;;;;;19.00;33.37;95210.34;10495476;28;2939;-50
2023/11/27 01:43:42;;;;;;;;;;;;;;;18.97;33.30;95210.91;10493834;28;4573;-50
2023/11/27 01:48:43;;;;;;;;;;;;;;;18.95;33.51;95205.16;10529014;27;2885;-51
2023/11/27 01:53:45;;;;;;;;;;;;;;;18.93;33.56;95206.47;10494608;28;2880;-52
2023/11/27 01:58:45;;;;;;;;;;;;;;;18.91;33.48;95205.97;10493999;28;2958;-49
2023/11/27 02:03:45;;;;;;;;;;;;;;;18.88;33.60;95202.06;10484550;28;2892;-50
2023/11/27 02:08:46;;;;;;;;;;;;;;;18.86;33.66;95198.91;10486000;28;2886;-49
2023/11/27 02:13:46;;;;;;;;;;;;;;;18.85;33.46;95192.13;10502358;28;2839;-48
2023/11/27 02:18:46;;;;;;;;;;;;;;;18.83;33.57;95188.97;10487577;28;2862;-49
2023/11/27 02:23:46;;;;;;;;;;;;;;;18.80;33.48;95188.72;10496041;28;2898;-51
2023/11/27 02:28:47;;;;;;;;;;;;;;;18.78;33.58;95183.75;10496701;28;3218;-47
2023/11/27 02:33:47;;;;;;;;;;;;;;;18.77;33.71;95179.56;10499158;28;2858;-51
2023/11/27 02:38:47;;;;;;;;;;;;;;;18.74;33.79;95174.88;10497029;28;3009;-49
2023/11/27 02:43:48;;;;;;;;;;;;;;;18.73;33.61;95172.53;10494660;28;4750;-51
2023/11/27 02:48:48;;;;;;;;;;;;;;;18.69;33.80;95170.44;10495341;28;2825;-51
2023/11/27 02:53:48;;;;;;;;;;;;;;;18.67;33.93;95166.50;10495948;28;2858;-48
2023/11/27 02:58:49;;;;;;;;;;;;;;;18.66;33.74;95163.13;10489990;28;2834;-50
2023/11/27 03:03:49;;;;;;;;;;;;;;;18.64;34.01;95164.44;10497726;28;2845;-49
2023/11/27 03:08:49;;;;;;;;;;;;;;;18.62;34.15;95161.31;10495895;28;2797;-49
2023/11/27 03:13:49;;;;;;;;;;;;;;;18.59;34.31;95149.50;10493478;28;2829;-51
2023/11/27 03:18:50;;;;;;;;;;;;;;;18.58;34.02;95149.81;10488256;28;2879;-47
2023/11/27 03:23:50;;;;;;;;;;;;;;;18.56;33.95;95136.97;10492967;28;2789;-51
2023/11/27 03:28:50;;;;;;;;;;;;;;;18.55;33.89;95129.34;10492929;28;2897;-47
2023/11/27 03:33:51;;;;;;;;;;;;;;;18.53;33.90;95120.97;10493885;28;2830;-52
2023/11/27 03:38:51;;;;;;;;;;;;;;;18.51;33.99;95110.75;10491485;28;2810;-49
2023/11/27 03:43:51;;;;;;;;;;;;;;;18.49;34.16;95096.31;10500096;28;4688;-46
2023/11/27 03:48:51;;;;;;;;;;;;;;;18.46;34.21;95094.25;10501330;28;2855;-50
2023/11/27 03:53:52;;;;;;;;;;;;;;;18.45;34.23;95079.56;10501672;28;2931;-48
2023/11/27 03:58:52;;;;;;;;;;;;;;;18.42;34.12;95078.22;10500025;28;2848;-49
2023/11/27 04:03:53;;;;;;;;;;;;;;;18.43;34.09;95073.78;10504502;28;3022;-48
2023/11/27 04:08:54;;;;;;;;;;;;;;;18.40;34.36;95069.09;10501262;28;2935;-49
2023/11/27 04:13:54;;;;;;;;;;;;;;;18.37;34.36;95059.94;10501588;28;2916;-50
2023/11/27 04:18:55;;;;;;;;;;;;;;;18.36;34.06;95049.72;10492640;28;2818;-48
2023/11/27 04:23:55;;;;;;;;;;;;;;;18.33;34.40;95048.41;10503590;28;2798;-45
2023/11/27 04:28:55;;;;;;;;;;;;;;;18.33;34.21;95042.38;10497670;28;3084;-46
2023/11/27 04:33:55;;;;;;;;;;;;;;;18.29;34.21;95029.03;10496339;28;2965;-45
2023/11/27 04:38:56;;;;;;;;;;;;;;;18.28;34.18;95009.09;10486118;28;2828;-47
2023/11/27 04:43:56;;;;;;;;;;;;;;;18.28;34.30;95008.34;10490219;28;4490;-46
2023/11/27 04:48:57;;;;;;;;;;;;;;;18.26;34.49;94992.09;10499442;28;2764;-46
2023/11/27 04:53:57;;;;;;;;;;;;;;;18.24;34.17;94981.06;10492404;28;2838;-47
2023/11/27 04:58:57;;;;;;;;;;;;;;;18.23;34.34;94979.50;10496344;28;2916;-49
2023/11/27 05:03:57;;;;;;;;;;;;;;;18.21;34.44;94973.75;10488691;28;2910;-49
2023/11/27 05:08:58;;;;;;;;;;;;;;;18.24;34.37;94975.81;10493824;28;2789;-46
2023/11/27 05:14:01;;;;;;;;;;;;;;;18.28;34.30;94971.59;10497019;28;2814;-49
2023/11/27 05:19:01;;;;;;;;;;;;;;;18.35;33.96;94977.28;10499849;28;2806;-52
2023/11/27 05:24:02;;;;;;;;;;;;;;;18.42;34.12;94967.25;10492763;28;2843;-47
2023/11/27 05:29:03;;;;;;;;;;;;;;;18.48;33.81;94955.69;10489425;28;2868;-48
2023/11/27 05:34:07;;;;;;;;;;;;;;;18.55;33.88;94961.34;10496043;28;2804;-46
2023/11/27 05:39:10;;;;;;;;;;;;;;;18.60;33.58;94969.19;10492029;28;3091;-46
2023/11/27 05:44:10;;;;;;;;;;;;;;;18.65;33.50;94948.13;10492163;28;4411;-49
2023/11/27 05:49:11;;;;;;;;;;;;;;;18.69;33.40;94959.66;10489794;28;3181;-50
2023/11/27 05:54:11;;;;;;;;;;;;;;;18.74;33.36;94953.53;10492112;28;2973;-46
2023/11/27 05:59:12;;;;;;;;;;;;;;;18.77;33.43;94951.16;10501583;28;2801;-47
2023/11/27 06:04:12;;;;;;;;;;;;;;;18.83;33.12;94944.78;10497277;28;2905;-48
2023/11/27 06:09:13;;;;;;;;;;;;;;;18.86;33.26;94952.06;10492493;28;2828;-48
2023/11/27 06:14:14;;;;;;;;;;;;;;;18.86;33.00;94931.06;10494748;28;2897;-48
2023/11/27 06:19:14;;;;;;;;;;;;;;;18.87;33.00;94924.78;10493304;28;2885;-46
2023/11/27 06:24:14;;;;;;;;;;;;;;;18.86;33.18;94917.94;10499929;28;2836;-49
2023/11/27 06:29:14;;;;;;;;;;;;;;;18.90;33.36;94915.56;10494639;28;2832;-50
2023/11/27 06:34:15;;;;;;;;;;;;;;;18.92;33.33;94913.44;10492341;28;2805;-46
2023/11/27 06:39:16;;;;;;;;;;;;;;;18.95;33.06;94921.50;10484649;28;2913;-48
2023/11/27 06:44:17;;;;;;;;;;;;;;;18.96;33.20;94912.56;10494373;28;4719;-46
2023/11/27 06:49:18;;;;;;;;;;;;;;;19.02;32.80;94903.53;10496975;28;2840;-50
2023/11/27 06:54:18;;;;;;;;;;;;;;;19.07;32.74;94905.31;10495812;28;2971;-50
2023/11/27 06:59:18;;;;;;;;;;;;;;;19.14;32.61;94890.78;10490025;28;2856;-51
2023/11/27 07:04:19;;;;;;;;;;;;;;;19.25;32.40;94892.19;10494391;28;2837;-46
2023/11/27 07:09:22;;;;;;;;;;;;;;;19.31;32.20;94891.03;10502591;28;2825;-47
2023/11/27 07:14:23;;;;;;;;;;;;;;;19.40;32.11;94893.84;10495585;28;2821;-48
2023/11/27 07:19:25;;;;;;;;;;;;;;;19.43;32.00;94877.50;10501037;28;2845;-47
2023/11/27 07:24:25;;;;;;;;;;;;;;;19.49;32.02;94871.88;10507509;28;2865;-49
2023/11/27 07:29:27;;;;;;;;;;;;;;;19.58;31.81;94868.59;10501848;28;2823;-50
2023/11/27 07:34:27;;;;;;;;;;;;;;;19.59;32.02;94863.06;10502488;28;3205;-50
2023/11/27 07:39:28;;;;;;;;;;;;;;;19.68;31.70;94853.41;10493995;28;2898;-52
2023/11/27 07:44:29;;;;;;;;;;;;;;;19.65;32.09;94848.75;10496547;28;4696;-51
2023/11/27 07:49:29;;;;;;;;;;;;;;;19.71;31.81;94857.31;10493187;28;2798;-51
2023/11/27 07:54:31;;;;;;;;;;;;;;;19.74;31.96;94848.88;10496569;28;2849;-50
2023/11/27 07:59:31;;;;;;;;;;;;;;;19.78;32.19;94844.59;10492081;28;2825;-49
2023/11/27 08:04:33;;;;;;;;;;;;;;;19.81;32.05;94849.25;10492114;28;3109;-52
2023/11/27 08:09:33;;;;;;;;;;;;;;;19.79;31.96;94844.28;10490465;28;2835;-48
2023/11/27 08:14:34;;;;;;;;;;;;;;;19.87;32.05;94843.63;10491967;28;2878;-51
2023/11/27 08:19:34;;;;;;;;;;;;;;;19.91;32.24;94841.19;10500361;28;2802;-52
2023/11/27 08:24:35;;;;;;;;;;;;;;;19.88;32.17;94834.69;10496329;28;2844;-52
2023/11/27 08:29:35;;;;;;;;;;;;;;;19.90;31.97;94832.53;10491179;28;2805;-49
2023/11/27 08:34:37;;;;;;;;;;;;;;;19.83;32.30;94833.97;10489014;28;2833;-49
2023/11/27 08:39:38;;;;;;;;;;;;;;;19.78;32.55;94826.19;10491672;28;2911;-50
2023/11/27 08:44:38;;;;;;;;;;;;;;;19.76;32.54;94825.69;10496247;28;2876;-48
2023/11/27 08:49:38;;;;;;;;;;;;;;;19.72;32.97;94827.34;10489204;28;2821;-49
2023/11/27 08:54:39;;;;;;;;;;;;;;;19.66;33.13;94823.25;10487980;28;3241;-51
2023/11/27 08:59:39;;;;;;;;;;;;;;;19.62;33.25;94814.38;10489246;28;2841;-53
2023/11/27 09:04:40;;;;;;;;;;;;;;;19.59;33.47;94809.69;10485428;28;2877;-49
2023/11/27 09:09:40;;;;;;;;;;;;;;;19.59;33.40;94812.31;10502239;28;2792;-52
2023/11/27 09:14:42;;;;;;;;;;;;;;;19.52;33.65;94796.13;10493621;28;2865;-52
2023/11/27 09:19:44;;;;;;;;;;;;;;;19.52;33.27;94796.13;10483730;28;2868;-48
2023/11/27 09:24:44;;;;;;;;;;;;;;;19.54;33.41;94784.25;10493081;28;2844;-52
2023/11/27 09:29:44;;;;;;;;;;;;;;;19.51;33.35;94778.81;10493095;28;2901;-53
2023/11/27 09:34:45;;;;;;;;;;;;;;;19.43;33.24;94775.78;10492803;28;2884;-51
2023/11/27 09:39:45;;;;;;;;;;;;;;;19.39;33.58;94771.41;10480615;28;2837;-53
2023/11/27 09:44:46;;;;;;;;;;;;;;;19.38;33.48;94759.31;10485198;28;2836;-53
2023/11/27 09:49:47;;;;;;;;;;;;;;;19.34;33.65;94750.47;10484258;28;3179;-52
2023/11/27 09:54:49;;;;;;;;;;;;;;;19.33;33.58;94747.03;10494487;28;2916;-50
2023/11/27 09:59:49;;;;;;;;;;;;;;;19.29;33.85;94734.75;10492296;28;2895;-51
2023/11/27 10:04:50;;;;;;;;;;;;;;;19.27;33.90;94727.16;10488549;28;2874;-47
2023/11/27 10:09:53;;;;;;;;;;;;;;;19.23;34.18;94715.66;10485355;28;2849;-48
2023/11/27 10:14:54;;;;;;;;;;;;;;;19.21;34.07;94703.88;10488767;28;2848;-49
2023/11/27 10:19:58;;;;;;;;;;;;;;;19.17;34.21;94689.75;10510892;28;2898;-52
2023/11/27 10:25:02;;;;;;;;;;;;;;;19.11;34.51;94668.06;10488524;28;2916;-51
2023/11/27 10:30:03;;;;;;;;;;;;;;;19.10;34.58;94684.13;10491090;28;3150;-51
2023/11/27 10:35:07;;;;;;;;;;;;;;;19.13;34.34;94675.66;10489790;28;3156;-52
2023/11/27 10:40:13;;;;;;;;;;;;;;;19.13;34.25;94644.91;10487798;28;2824;-52
2023/11/27 10:45:17;;;;;;;;;;;;;;;19.18;34.19;94605.44;10483118;28;4454;-53
2023/11/27 10:50:18;;;;;;;;;;;;;;;19.24;34.10;94574.59;10485195;28;2893;-51
2023/11/27 10:55:18;;;;;;;;;;;;;;;19.27;34.29;94590.53;10496141;28;2802;-51
2023/11/27 11:00:27;;;;;;;;;;;;;;;19.31;34.23;94583.63;10523346;27;2904;-53
2023/11/27 11:05:29;;;;;;;;;;;;;;;19.35;34.03;94574.09;10492728;28;2848;-54
2023/11/27 11:10:31;;;;;;;;;;;;;;;19.37;33.97;94547.56;10491145;28;3146;-50
2023/11/27 11:15:33;;;;;;;;;;;;;;;19.40;34.11;94537.22;10492949;28;2861;-51
2023/11/27 11:20:56;;;;;;;;;;;;;;;19.45;34.03;94523.22;10493641;28;2929;-52
2023/11/27 11:26:21;;;;;;;;;;;;;;;19.51;34.43;94508.09;10516720;28;2941;-53
2023/11/27 11:31:24;;;;;;;;;;;;;;;19.57;35.88;94481.41;10496222;28;2941;-50
2023/11/27 11:36:34;;;;;;;;;;;;;;;19.65;37.78;94472.81;10490228;28;2917;-54
2023/11/27 11:41:36;;;;;;;;;;;;;;;19.69;36.75;94454.59;10493613;28;2865;-53
2023/11/27 11:46:38;;;;;;;;;;;;;;;19.74;37.18;94455.22;10494737;28;4646;-51
2023/11/27 11:51:58;;;;;;;;;;;;;;;19.75;36.78;94461.28;10495184;28;2957;-51
2023/11/27 11:57:11;;;;;;;;;;;;;;;19.77;36.55;94465.16;10491092;28;2781;-49
2023/11/27 12:02:12;;;;;;;;;;;;;;;19.78;36.23;94466.75;10489232;28;3177;-49
2023/11/27 12:07:13;;;;;;;;;;;;;;;19.78;36.12;94453.59;10493193;28;2897;-52
2023/11/27 12:12:16;;;;;;;;;;;;;;;19.78;36.04;94439.66;10494632;28;2828;-51
2023/11/27 12:17:16;;;;;;;;;;;;;;;19.78;36.23;94421.25;10487488;28;2846;-51
2023/11/27 12:22:19;;;;;;;;;;;;;;;19.82;36.27;94417.72;10498058;28;3323;-50
2023/11/27 12:27:22;;;;;;;;;;;;;;;19.85;36.33;94411.06;10493950;28;2860;-52
2023/11/27 12:32:24;;;;;;;;;;;;;;;19.84;36.03;94394.53;10495503;28;2841;-51
2023/11/27 12:37:28;;;;;;;;;;;;;;;19.85;36.05;94380.31;10487414;28;2938;-52
2023/11/27 12:42:29;;;;;;;;;;;;;;;19.85;35.94;94355.84;10493693;28;2881;-48
2023/11/27 12:47:34;;;;;;;;;;;;;;;19.86;36.07;94360.03;10490443;28;4527;-52
2023/11/27 12:52:34;;;;;;;;;;;;;;;19.84;35.73;94346.44;10487220;28;2881;-52
2023/11/27 12:57:35;;;;;;;;;;;;;;;19.85;35.53;94337.44;10486972;28;3004;-50
2023/11/27 13:02:44;;;;;;;;;;;;;;;19.87;35.02;94346.59;10486108;28;2839;-50
2023/11/27 13:07:45;;;;;;;;;;;;;;;19.90;34.82;94322.31;10488120;28;3214;-51
2023/11/27 13:12:48;;;;;;;;;;;;;;;19.99;33.92;94288.19;10491311;28;2845;-52
2023/11/27 13:17:53;;;;;;;;;;;;;;;20.04;34.25;94299.31;10492672;28;2924;-51
2023/11/27 13:22:54;;;;;;;;;;;;;;;20.07;33.60;94297.94;10496241;28;2872;-53
2023/11/27 13:27:54;;;;;;;;;;;;;;;20.11;34.23;94289.13;10491949;28;2943;-51
2023/11/27 13:32:58;;;;;;;;;;;;;;;20.12;33.59;94268.84;10488887;28;2819;-50
2023/11/27 13:38:00;;;;;;;;;;;;;;;20.18;33.61;94254.47;10492322;28;2995;-49
2023/11/27 13:43:01;;;;;;;;;;;;;;;20.18;33.49;94241.31;10492353;28;4648;-52
2023/11/27 13:48:01;;;;;;;;;;;;;;;20.22;33.27;94232.56;10485852;28;2904;-49
2023/11/27 13:53:08;;;;;;;;;;;;;;;20.24;33.17;94219.06;10485516;28;2852;-46
2023/11/27 13:58:08;;;;;;;;;;;;;;;20.26;33.01;94201.91;10490806;28;2888;-48
2023/11/27 14:03:11;;;;;;;;;;;;;;;20.27;33.10;94192.16;10490167;28;3008;-49
2023/11/27 14:08:15;;;;;;;;;;;;;;;20.31;32.97;94174.69;10494737;28;2811;-52
2023/11/27 14:13:16;;;;;;;;;;;;;;;20.31;32.98;94166.00;10490837;28;2872;-47
2023/11/27 14:23:25;;;;;;;;;;;;;;;20.34;32.97;94160.13;10492949;28;3391;-47
2023/11/27 14:33:47;;;;;;;;;;;;;;;20.39;32.86;94117.84;10488117;28;2770;-46
2023/11/27 14:38:48;;;;;;;;;;;;;;;20.37;32.70;94118.16;10495592;28;2876;-50
2023/11/27 14:43:48;;;;;;;;;;;;;;;20.39;32.52;94104.69;10492236;28;4620;-49
2023/11/27 14:48:49;;;;;;;;;;;;;;;20.39;32.53;94097.59;10496549;28;2860;-50
2023/11/27 14:53:55;;;;;;;;;;;;;;;20.40;32.41;94079.94;10488502;28;2883;-51
2023/11/27 14:58:56;;;;;;;;;;;;;;;20.42;32.54;94086.44;10489031;28;2903;-52
2023/11/27 15:03:56;;;;;;;;;;;;;;;20.44;32.28;94081.66;10488251;28;2836;-50
2023/11/27 15:08:59;;;;;;;;;;;;;;;20.49;32.47;94073.56;10492456;28;2849;-50
2023/11/27 15:14:02;;;;;;;;;;;;;;;20.48;32.48;94056.25;10485337;28;2815;-48
2023/11/27 15:19:03;;;;;;;;;;;;;;;20.47;32.42;94046.00;10489281;28;2805;-49
2023/11/27 15:24:03;;;;;;;;;;;;;;;20.46;32.48;94037.34;10494241;28;3010;-52
2023/11/27 15:29:05;;;;;;;;;;;;;;;20.53;33.11;94026.34;10492666;28;2877;-50
2023/11/27 15:34:11;;;;;;;;;;;;;;;20.50;32.25;94013.81;10477821;28;2875;-52
2023/11/27 15:39:28;;;;;;;;;;;;;;;20.48;31.98;94006.25;10493836;28;2827;-50
2023/11/27 15:44:31;;;;;;;;;;;;;;;20.50;32.25;93992.75;10495984;28;4618;-53
2023/11/27 15:49:32;;;;;;;;;;;;;;;20.49;32.30;93986.72;10494146;28;2837;-51
2023/11/27 15:54:32;;;;;;;;;;;;;;;20.49;31.91;93973.56;10493076;27;2796;-47
2023/11/27 15:59:33;;;;;;;;;;;;;;;20.49;32.00;93955.13;10501478;28;2813;-52
2023/11/27 16:04:34;;;;;;;;;;;;;;;20.49;31.86;93952.50;10498515;28;2885;-49
2023/11/27 16:09:34;;;;;;;;;;;;;;;20.48;32.09;93950.19;10498480;28;2998;-54
2023/11/27 16:14:34;;;;;;;;;;;;;;;20.49;32.57;93941.97;10501399;28;2927;-53
2023/11/27 16:19:35;;;;;;;;;;;;;;;20.55;32.46;93934.66;10496626;28;2797;-46
2023/11/27 16:24:38;;;;;;;;;;;;;;;20.57;32.53;93928.00;10488702;28;3199;-50
2023/11/27 16:29:38;;;;;;;;;;;;;;;20.55;33.18;93921.50;10496232;28;2883;-52
2023/11/27 16:34:39;;;;;;;;;;;;;;;20.62;32.19;93903.34;10489615;28;2886;-49
2023/11/27 16:39:39;;;;;;;;;;;;;;;20.60;32.45;93901.06;10479543;28;2919;-50
2023/11/27 16:44:39;;;;;;;;;;;;;;;20.59;32.30;93888.97;10493402;28;4640;-48
2023/11/27 16:49:40;;;;;;;;;;;;;;;20.58;32.24;93894.56;10498004;28;2786;-48
2023/11/27 16:54:40;;;;;;;;;;;;;;;20.59;32.72;93888.19;10494538;28;2826;-53
2023/11/27 16:59:41;;;;;;;;;;;;;;;20.61;32.45;93886.78;10496442;28;2840;-55
2023/11/27 17:04:41;;;;;;;;;;;;;;;20.63;32.58;93889.13;10493466;28;2907;-51
2023/11/27 17:09:42;;;;;;;;;;;;;;;20.61;32.01;93884.16;10493049;28;2892;-51
2023/11/27 17:14:43;;;;;;;;;;;;;;;20.60;31.89;93887.88;10488207;28;2833;-47
2023/11/27 17:19:43;;;;;;;;;;;;;;;20.61;31.82;93881.53;10495907;28;2844;-52
2023/11/27 17:24:44;;;;;;;;;;;;;;;20.62;31.79;93877.81;10497158;28;2859;-51
2023/11/27 17:29:45;;;;;;;;;;;;;;;20.62;31.75;93871.78;10492953;28;2897;-49
2023/11/27 17:34:46;;;;;;;;;;;;;;;20.61;32.09;93878.88;10487807;28;2810;-48
2023/11/27 17:39:46;;;;;;;;;;;;;;;20.60;32.38;93868.69;10493398;28;2833;-50
2023/11/27 17:44:47;;;;;;;;;;;;;;;20.58;31.92;93861.13;10488075;28;4652;-50
2023/11/27 17:49:49;;;;;;;;;;;;;;;20.62;31.55;93856.75;10494468;28;2858;-49
2023/11/27 17:54:49;;;;;;;;;;;;;;;20.63;32.00;93852.28;10493943;28;2855;-51
2023/11/27 17:59:49;;;;;;;;;;;;;;;20.59;32.23;93846.84;10491394;28;2860;-52
2023/11/27 18:04:49;;;;;;;;;;;;;;;20.57;31.67;93838.50;10488522;28;2849;-50
2023/11/27 18:09:50;;;;;;;;;;;;;;;20.57;31.52;93830.59;10489476;28;2912;-46
2023/11/27 18:14:50;;;;;;;;;;;;;;;20.58;31.27;93818.22;10487279;28;3000;-49
2023/11/27 18:19:50;;;;;;;;;;;;;;;20.61;31.60;93810.44;10488759;28;2861;-51
2023/11/27 18:24:51;;;;;;;;;;;;;;;20.52;32.20;93807.13;10486147;28;2865;-51
2023/11/27 18:29:51;;;;;;;;;;;;;;;20.50;33.70;93801.41;10511603;28;2283;-55
2023/11/27 18:34:51;;;;;;;;;;;;;;;20.65;33.40;93790.28;10511275;28;2762;-50
2023/11/27 18:39:52;;;;;;;;;;;;;;;20.68;32.98;93781.75;10512464;28;2480;-52
2023/11/27 18:44:52;;;;;;;;;;;;;;;20.67;31.97;93782.84;10514864;28;4645;-53
2023/11/27 18:49:53;;;;;;;;;;;;;;;20.72;33.72;93766.09;10505954;28;1480;-53
2023/11/27 18:54:56;;;;;;;;;;;;;;;20.69;33.03;93762.22;10507437;28;1940;-52
2023/11/27 18:59:56;;;;;;;;;;;;;;;20.74;32.86;93748.88;10505918;28;1898;-54
2023/11/27 19:04:57;;;;;;;;;;;;;;;20.76;32.53;93749.31;10505519;28;2047;-52
2023/11/27 19:09:57;;;;;;;;;;;;;;;20.76;32.59;93741.44;10514461;28;1560;-50
2023/11/27 19:14:58;;;;;;;;;;;;;;;20.80;32.63;93731.00;10518648;28;1439;-54
2023/11/27 19:19:58;;;;;;;;;;;;;;;20.79;32.43;93724.97;10521360;28;1984;-55
2023/11/27 19:24:58;;;;;;;;;;;;;;;20.79;32.27;93722.34;10519234;28;1469;-53
2023/11/27 19:29:59;;;;;;;;;;;;;;;20.78;32.73;93705.00;10517337;28;1437;-54
2023/11/27 19:34:59;;;;;;;;;;;;;;;20.74;32.79;93705.97;10521525;28;2263;-53
2023/11/27 19:40:01;;;;;;;;;;;;;;;20.79;32.43;93695.25;10503456;28;1906;-51
2023/11/27 19:45:01;;;;;;;;;;;;;;;20.71;32.22;93680.31;10523386;28;4665;-52
2023/11/27 19:50:03;;;;;;;;;;;;;;;20.75;32.47;93670.66;10527801;28;1481;-50
2023/11/27 19:55:06;;;;;;;;;;;;;;;20.73;32.54;93670.97;10520404;28;1486;-49
2023/11/27 20:00:10;;;;;;;;;;;;;;;20.70;33.32;93668.22;10530304;28;1972;-48
2023/11/27 20:05:10;;;;;;;;;;;;;;;20.74;32.54;93664.63;10528384;28;1659;-48
2023/11/27 20:10:10;;;;;;;;;;;;;;;20.72;32.37;93648.38;10521644;28;1544;-45
2023/11/27 20:15:11;;;;;;;;;;;;;;;20.72;32.15;93648.38;10533831;28;1536;-49
2023/11/27 20:20:14;;;;;;;;;;;;;;;20.71;32.34;93638.19;10522690;28;2377;-46
2023/11/27 20:25:15;;;;;;;;;;;;;;;20.69;31.88;93627.97;10533856;27;1490;-48
2023/11/27 20:30:16;;;;;;;;;;;;;;;20.66;32.56;93628.63;10518060;28;1781;-48
2023/11/27 20:35:17;;;;;;;;;;;;;;;20.67;31.93;93624.88;10521684;28;2170;-47
2023/11/27 20:40:17;;;;;;;;;;;;;;;20.65;31.77;93606.00;10519018;28;1908;-51
2023/11/27 20:45:17;;;;;;;;;;;;;;;20.62;32.02;93606.69;10521206;28;4736;-54
2023/11/27 20:50:18;;;;;;;;;;;;;;;20.63;31.91;93597.66;10522006;28;1485;-51
2023/11/27 20:55:18;;;;;;;;;;;;;;;20.66;32.41;93596.25;10523492;28;1455;-52
2023/11/27 21:00:18;;;;;;;;;;;;;;;20.61;32.38;93576.16;10515968;28;1914;-50
2023/11/27 21:05:20;;;;;;;;;;;;;;;20.63;32.27;93584.50;10527205;28;1539;-50
2023/11/27 21:10:20;;;;;;;;;;;;;;;20.59;32.24;93581.00;10525927;28;1465;-52
2023/11/27 21:15:21;;;;;;;;;;;;;;;20.59;31.74;93580.22;10522775;28;1670;-54
2023/11/27 21:20:21;;;;;;;;;;;;;;;20.57;32.36;93564.75;10520130;28;1921;-53
2023/11/27 21:25:22;;;;;;;;;;;;;;;20.58;31.61;93571.56;10525937;28;1488;-51
2023/11/27 21:30:22;;;;;;;;;;;;;;;20.54;32.37;93569.91;10518381;28;1464;-54
2023/11/27 21:35:25;;;;;;;;;;;;;;;20.51;31.74;93566.06;10518049;28;1673;-51
2023/11/27 21:40:26;;;;;;;;;;;;;;;20.50;31.68;93559.28;10522758;28;2023;-54
2023/11/27 21:45:26;;;;;;;;;;;;;;;20.46;32.04;93553.13;10520748;28;4456;-52
2023/11/27 21:50:26;;;;;;;;;;;;;;;20.40;32.48;93558.91;10520498;28;2275;-51
2023/11/27 21:55:29;;;;;;;;;;;;;;;20.36;32.98;93555.38;10522002;28;1576;-52
2023/11/27 22:00:29;;;;;;;;;;;;;;;20.26;33.36;93551.28;10521990;28;1973;-51
2023/11/27 22:05:29;;;;;;;;;;;;;;;20.18;33.49;93549.47;10524614;28;1449;-53
2023/11/27 22:10:30;;;;;;;;;;;;;;;20.13;33.32;93549.69;10518322;28;1476;-51
2023/11/27 22:15:30;;;;;;;;;;;;;;;20.09;33.31;93538.25;10520848;28;1426;-53
2023/11/27 22:20:30;;;;;;;;;;;;;;;20.01;33.73;93539.13;10520192;28;1979;-51
2023/11/27 22:25:31;;;;;;;;;;;;;;;19.92;34.06;93543.66;10521462;28;1415;-49
2023/11/27 22:30:31;;;;;;;;;;;;;;;19.84;34.13;93532.13;10515447;28;1497;-50
2023/11/27 22:35:32;;;;;;;;;;;;;;;19.79;33.94;93513.13;10520032;28;1574;-50
2023/11/27 22:40:32;;;;;;;;;;;;;;;19.73;34.30;93520.44;10520729;28;1918;-53
2023/11/27 22:45:33;;;;;;;;;;;;;;;19.69;34.39;93518.78;10515043;28;4747;-52
2023/11/27 22:50:33;;;;;;;;;;;;;;;19.62;34.46;93511.41;10530316;28;1535;-47
2023/11/27 22:55:34;;;;;;;;;;;;;;;19.59;34.38;93504.19;10536475;28;1519;-50
2023/11/27 23:00:35;;;;;;;;;;;;;;;19.55;34.17;93502.50;10531303;28;1922;-52
2023/11/27 23:05:36;;;;;;;;;;;;;;;19.48;34.55;93487.25;10522415;28;2864;-52
2023/11/27 23:10:37;;;;;;;;;;;;;;;19.44;34.17;93475.84;10508893;28;2781;-51
2023/11/27 23:15:40;;;;;;;;;;;;;;;19.40;34.34;93475.72;10511378;28;2900;-53
2023/11/27 23:20:40;;;;;;;;;;;;;;;19.38;34.52;93470.00;10501770;28;3298;-51
2023/11/27 23:25:43;;;;;;;;;;;;;;;19.34;34.48;93465.72;10503376;28;2949;-51
2023/11/27 23:30:43;;;;;;;;;;;;;;;19.29;34.67;93456.13;10501556;28;2894;-49
2023/11/27 23:35:44;;;;;;;;;;;;;;;19.27;34.64;93444.41;10497528;28;2881;-53
2023/11/27 23:40:45;;;;;;;;;;;;;;;19.24;34.27;93435.31;10530389;27;2835;-51
2023/11/27 23:45:45;;;;;;;;;;;;;;;19.23;34.07;93428.53;10502577;28;2820;-51
2023/11/27 23:50:46;;;;;;;;;;;;;;;19.18;34.20;93418.22;10500786;28;2852;-51
2023/11/27 23:55:46;;;;;;;;;;;;;;;19.13;34.32;93415.78;10493256;28;2822;-51
